Time;durP1;ratioP1;P1;durP2;ratioP2;P2;SDS_P1;SDS_P2;PMS_P1;PMS_P2;Temp;Humidity;BMP_temperature;BMP_pressure;BME280_temperature;BME280_humidity;BME280_pressure;Samples;Min_cycle;Max_cycle;Signal;HPM_P1;HPM_P2
2024/03/09 00:01:34;;;;;;;;;;;;;;;;;;2204708;67;1885;-19
2024/03/09 00:04:05;;;;;;;;;;;;;;;;;;2201217;59;2480;-20
2024/03/09 00:06:37;;;;;;;;;;;;;;;;;;2205261;67;1957;-20
2024/03/09 00:09:09;;;;;;;;;;;;;;;;;;2204198;59;1963;-20
2024/03/09 00:11:39;;;;;;;;;;;;;;;;;;2204738;67;2051;-20
2024/03/09 00:14:10;;;;;;;;;;;;;;;;;;2204353;59;2617;-20
2024/03/09 00:16:40;;;;;;;;;;;;;;;;;;2205949;67;1920;-20
2024/03/09 00:19:15;;;;;;;;;;;;;;;;;;2201411;59;2092;-20
2024/03/09 00:21:45;;;;;;;;;;;;;;;;;;2205299;59;2315;-20
2024/03/09 00:24:15;;;;;;;;;;;;;;;;;;2203206;67;1944;-20
2024/03/09 00:26:47;;;;;;;;;;;;;;;;;;2204565;67;2087;-20
2024/03/09 00:29:18;;;;;;;;;;;;;;;;;;2204298;67;1864;-20
2024/03/09 00:31:51;;;;;;;;;;;;;;;;;;2206145;67;2406;-20
2024/03/09 00:34:23;;;;;;;;;;;;;;;;;;2204242;59;1987;-20
2024/03/09 00:36:53;;;;;;;;;;;;;;;;;;2202330;67;1749;-20
2024/03/09 00:39:24;;;;;;;;;;;;;;;;;;2205148;59;2579;-36
2024/03/09 00:41:54;;;;;;;;;;;;;;;;;;2202265;67;1943;-20
2024/03/09 00:44:25;;;;;;;;;;;;;;;;;;2202938;67;1958;-20
2024/03/09 00:47:02;;;;;;;;;;;;;;;;;;2205976;59;1933;-20
2024/03/09 00:49:34;;;;;;;;;;;;;;;;;;2204312;67;3104;-20
2024/03/09 00:52:05;;;;;;;;;;;;;;;;;;2202416;67;1826;-20
2024/03/09 00:54:37;;;;;;;;;;;;;;;;;;2204743;59;2125;-20
2024/03/09 00:57:07;;;;;;;;;;;;;;;;;;2202797;67;2096;-20
2024/03/09 00:59:37;;;;;;;;;;;;;;;;;;2203161;67;1928;-20
2024/03/09 01:02:08;;;;;;;;;;;;;;;;;;2205162;59;1720;-21
2024/03/09 01:04:38;;;;;;;;;;;;;;;;;;2203262;59;1979;-20
2024/03/09 01:07:09;;;;;;;;;;;;;;;;;;2203653;67;2324;-17
2024/03/09 01:09:41;;;;;;;;;;;;;;;;;;2205227;59;1922;-17
2024/03/09 01:12:12;;;;;;;;;;;;;;;;;;2204751;67;2040;-17
2024/03/09 01:14:43;;;;;;;;;;;;;;;;;;2206048;59;1846;-17
2024/03/09 01:17:17;;;;;;;;;;;;;;;;;;2201733;67;2444;-17
2024/03/09 01:19:48;;;;;;;;;;;;;;;;;;2200073;59;1930;-17
2024/03/09 01:22:19;;;;;;;;;;;;;;;;;;2204512;67;2368;-17
2024/03/09 01:24:50;;;;;;;;;;;;;;;;;;2205526;67;1899;-17
2024/03/09 01:27:20;;;;;;;;;;;;;;;;;;2205407;67;2121;-17
2024/03/09 01:29:54;;;;;;;;;;;;;;;;;;2205455;67;2017;-17
2024/03/09 01:32:25;;;;;;;;;;;;;;;;;;2199295;59;2562;-17
2024/03/09 01:34:56;;;;;;;;;;;;;;;;;;2205383;59;1822;-17
2024/03/09 01:37:26;;;;;;;;;;;;;;;;;;2204886;59;2850;-17
2024/03/09 01:39:57;;;;;;;;;;;;;;;;;;2205511;59;1872;-17
2024/03/09 01:42:28;;;;;;;;;;;;;;;;;;2204277;59;1971;-17
2024/03/09 01:44:59;;;;;;;;;;;;;;;;;;2202213;59;2125;-17
2024/03/09 01:47:29;;;;;;;;;;;;;;;;;;2201096;67;1957;-17
2024/03/09 01:50:00;;;;;;;;;;;;;;;;;;2206642;59;1899;-17
2024/03/09 01:52:32;;;;;;;;;;;;;;;;;;2203967;59;1989;-17
2024/03/09 01:55:08;;;;;;;;;;;;;;;;;;2205552;59;1916;-17
2024/03/09 01:57:38;;;;;;;;;;;;;;;;;;2203829;59;1936;-17
2024/03/09 02:00:09;;;;;;;;;;;;;;;;;;2204834;67;1809;-17
2024/03/09 02:02:39;;;;;;;;;;;;;;;;;;2204538;59;2486;-17
2024/03/09 02:05:13;;;;;;;;;;;;;;;;;;2206401;67;1987;-17
2024/03/09 02:07:45;;;;;;;;;;;;;;;;;;2205092;59;2356;-17
2024/03/09 02:10:15;;;;;;;;;;;;;;;;;;2200478;67;2533;-17
2024/03/09 02:12:46;;;;;;;;;;;;;;;;;;2205493;67;1898;-17
2024/03/09 02:15:17;;;;;;;;;;;;;;;;;;2203985;59;1854;-17
2024/03/09 02:17:47;;;;;;;;;;;;;;;;;;2205878;67;1770;-17
2024/03/09 02:20:20;;;;;;;;;;;;;;;;;;2203587;67;1910;-17
2024/03/09 02:22:50;;;;;;;;;;;;;;;;;;2201926;67;1913;-17
2024/03/09 02:25:21;;;;;;;;;;;;;;;;;;2204277;67;1800;-17
2024/03/09 02:27:52;;;;;;;;;;;;;;;;;;2205723;67;1984;-17
2024/03/09 02:30:24;;;;;;;;;;;;;;;;;;2202993;67;2306;-17
2024/03/09 02:33:03;;;;;;;;;;;;;;;;;;2205347;67;1766;-17
2024/03/09 02:35:34;;;;;;;;;;;;;;;;;;2203329;59;1964;-17
2024/03/09 02:38:05;;;;;;;;;;;;;;;;;;2202216;59;3111;-17
2024/03/09 02:40:35;;;;;;;;;;;;;;;;;;2201557;59;2004;-17
2024/03/09 02:43:07;;;;;;;;;;;;;;;;;;2202367;67;1865;-17
2024/03/09 02:45:38;;;;;;;;;;;;;;;;;;2204167;59;2040;-17
2024/03/09 02:48:08;;;;;;;;;;;;;;;;;;2205071;67;2011;-17
2024/03/09 02:50:40;;;;;;;;;;;;;;;;;;2204293;67;2746;-17
2024/03/09 02:53:10;;;;;;;;;;;;;;;;;;2202838;67;2129;-17
2024/03/09 02:55:40;;;;;;;;;;;;;;;;;;2201890;59;1836;-17
2024/03/09 02:58:12;;;;;;;;;;;;;;;;;;2202756;67;2284;-17
2024/03/09 03:00:42;;;;;;;;;;;;;;;;;;2205643;67;1790;-17
2024/03/09 03:06:02;;;;;;;;;;;;;;;;;;2206164;67;2219;-17
2024/03/09 03:08:33;;;;;;;;;;;;;;;;;;2206003;59;2066;-17
2024/03/09 03:11:04;;;;;;;;;;;;;;;;;;2205826;67;2014;-17
2024/03/09 03:13:34;;;;;;;;;;;;;;;;;;2201604;59;2067;-17
2024/03/09 03:16:05;;;;;;;;;;;;;;;;;;2206405;67;2011;-17
2024/03/09 03:18:36;;;;;;;;;;;;;;;;;;2204836;67;2200;-17
2024/03/09 03:21:06;;;;;;;;;;;;;;;;;;2203591;67;2064;-18
2024/03/09 03:23:36;;;;;;;;;;;;;;;;;;2200586;67;1970;-17
2024/03/09 03:26:07;;;;;;;;;;;;;;;;;;2206615;67;2567;-17
2024/03/09 03:28:37;;;;;;;;;;;;;;;;;;2206240;67;1897;-18
2024/03/09 03:31:10;;;;;;;;;;;;;;;;;;2205695;67;1820;-17
2024/03/09 03:33:42;;;;;;;;;;;;;;;;;;2204637;59;2479;-17
2024/03/09 03:36:15;;;;;;;;;;;;;;;;;;2205654;67;2318;-17
2024/03/09 03:38:46;;;;;;;;;;;;;;;;;;2205330;59;1904;-17
2024/03/09 03:41:18;;;;;;;;;;;;;;;;;;2202745;59;2120;-17
2024/03/09 03:43:49;;;;;;;;;;;;;;;;;;2205456;59;2495;-17
2024/03/09 03:46:19;;;;;;;;;;;;;;;;;;2205620;59;2109;-17
2024/03/09 03:48:49;;;;;;;;;;;;;;;;;;2204893;59;2157;-17
2024/03/09 03:51:20;;;;;;;;;;;;;;;;;;2205234;67;2673;-17
2024/03/09 03:53:50;;;;;;;;;;;;;;;;;;2204947;67;1902;-17
2024/03/09 03:56:24;;;;;;;;;;;;;;;;;;2202445;59;2503;-17
2024/03/09 03:58:54;;;;;;;;;;;;;;;;;;2205737;67;1934;-17
2024/03/09 04:01:25;;;;;;;;;;;;;;;;;;2201107;67;2307;-17
2024/03/09 04:03:55;;;;;;;;;;;;;;;;;;2202576;59;2418;-17
2024/03/09 04:06:25;;;;;;;;;;;;;;;;;;2205145;59;2348;-17
2024/03/09 04:08:57;;;;;;;;;;;;;;;;;;2206214;67;1942;-17
2024/03/09 04:11:33;;;;;;;;;;;;;;;;;;2203994;59;1781;-17
2024/03/09 04:14:04;;;;;;;;;;;;;;;;;;2207261;59;2622;-17
2024/03/09 04:16:36;;;;;;;;;;;;;;;;;;2204047;67;1925;-17
2024/03/09 04:19:07;;;;;;;;;;;;;;;;;;2205574;67;2213;-17
2024/03/09 04:21:38;;;;;;;;;;;;;;;;;;2200365;67;2046;-17
2024/03/09 04:24:09;;;;;;;;;;;;;;;;;;2203197;59;1974;-17
2024/03/09 04:26:40;;;;;;;;;;;;;;;;;;2202519;67;2802;-17
2024/03/09 04:29:10;;;;;;;;;;;;;;;;;;2205494;67;2296;-17
2024/03/09 04:31:44;;;;;;;;;;;;;;;;;;2204405;67;2280;-17
2024/03/09 04:34:17;;;;;;;;;;;;;;;;;;2205274;59;2502;-17
2024/03/09 04:36:48;;;;;;;;;;;;;;;;;;2203666;67;2119;-17
2024/03/09 04:39:19;;;;;;;;;;;;;;;;;;2205394;59;2029;-17
2024/03/09 04:41:54;;;;;;;;;;;;;;;;;;2200418;59;2285;-18
2024/03/09 04:44:24;;;;;;;;;;;;;;;;;;2204687;67;1834;-17
2024/03/09 04:46:55;;;;;;;;;;;;;;;;;;2203738;59;2058;-17
2024/03/09 04:49:25;;;;;;;;;;;;;;;;;;2205718;67;2607;-17
2024/03/09 04:51:56;;;;;;;;;;;;;;;;;;2205002;59;2458;-17
2024/03/09 04:54:27;;;;;;;;;;;;;;;;;;2204281;59;1924;-17
2024/03/09 04:56:57;;;;;;;;;;;;;;;;;;2206222;67;1921;-17
2024/03/09 04:59:28;;;;;;;;;;;;;;;;;;2203625;67;2029;-17
2024/03/09 05:01:58;;;;;;;;;;;;;;;;;;2204308;67;2190;-17
2024/03/09 05:04:29;;;;;;;;;;;;;;;;;;2204555;59;2047;-17
2024/03/09 05:06:59;;;;;;;;;;;;;;;;;;2205322;67;1948;-17
2024/03/09 05:09:30;;;;;;;;;;;;;;;;;;2202020;59;2189;-17
2024/03/09 05:12:01;;;;;;;;;;;;;;;;;;2205762;63;2442;-17
2024/03/09 05:14:31;;;;;;;;;;;;;;;;;;2202778;59;2316;-17
2024/03/09 05:17:02;;;;;;;;;;;;;;;;;;2206503;67;1810;-17
2024/03/09 05:19:33;;;;;;;;;;;;;;;;;;2204896;67;2642;-17
2024/03/09 05:22:05;;;;;;;;;;;;;;;;;;2201964;67;1965;-17
2024/03/09 05:24:35;;;;;;;;;;;;;;;;;;2203896;67;2021;-17
2024/03/09 05:27:07;;;;;;;;;;;;;;;;;;2204835;67;1988;-17
2024/03/09 05:29:38;;;;;;;;;;;;;;;;;;2200824;67;1964;-17
2024/03/09 05:32:08;;;;;;;;;;;;;;;;;;2204821;67;2212;-17
2024/03/09 05:34:40;;;;;;;;;;;;;;;;;;2205405;59;1684;-17
2024/03/09 05:37:11;;;;;;;;;;;;;;;;;;2205208;67;2579;-17
2024/03/09 05:39:41;;;;;;;;;;;;;;;;;;2204669;53;2273;-22
2024/03/09 05:42:11;;;;;;;;;;;;;;;;;;2195016;59;1879;-22
2024/03/09 05:44:42;;;;;;;;;;;;;;;;;;2197926;59;2049;-22
2024/03/09 05:47:12;;;;;;;;;;;;;;;;;;2195032;59;1931;-22
2024/03/09 05:49:44;;;;;;;;;;;;;;;;;;2197430;67;1894;-22
2024/03/09 05:52:14;;;;;;;;;;;;;;;;;;2199270;67;1423;-22
2024/03/09 05:54:44;;;;;;;;;;;;;;;;;;2197954;59;2385;-22
2024/03/09 05:57:15;;;;;;;;;;;;;;;;;;2199359;59;2028;-22
2024/03/09 05:59:46;;;;;;;;;;;;;;;;;;2196987;67;2655;-22
2024/03/09 06:02:16;;;;;;;;;;;;;;;;;;2198598;67;2463;-22
2024/03/09 06:04:46;;;;;;;;;;;;;;;;;;2195787;59;1803;-22
2024/03/09 06:07:16;;;;;;;;;;;;;;;;;;2198259;67;2378;-22
2024/03/09 06:09:46;;;;;;;;;;;;;;;;;;2197750;67;1884;-22
2024/03/09 06:12:17;;;;;;;;;;;;;;;;;;2198525;59;1775;-22
2024/03/09 06:14:47;;;;;;;;;;;;;;;;;;2198479;59;1906;-22
2024/03/09 06:17:18;;;;;;;;;;;;;;;;;;2198826;67;1765;-22
2024/03/09 06:19:48;;;;;;;;;;;;;;;;;;2197817;67;2109;-22
2024/03/09 06:22:18;;;;;;;;;;;;;;;;;;2199592;59;2304;-22
2024/03/09 06:24:50;;;;;;;;;;;;;;;;;;2198282;59;1293;-22
2024/03/09 06:27:21;;;;;;;;;;;;;;;;;;2199300;59;1934;-22
2024/03/09 06:29:51;;;;;;;;;;;;;;;;;;2195207;59;1188;-22
2024/03/09 06:32:28;;;;;;;;;;;;;;;;;;2198453;67;1504;-22
2024/03/09 06:34:59;;;;;;;;;;;;;;;;;;2197750;59;1722;-22
2024/03/09 06:37:29;;;;;;;;;;;;;;;;;;2198973;59;1259;-22
2024/03/09 06:40:00;;;;;;;;;;;;;;;;;;2192676;59;1806;-22
2024/03/09 06:42:31;;;;;;;;;;;;;;;;;;2199403;67;1429;-22
2024/03/09 06:45:01;;;;;;;;;;;;;;;;;;2194482;59;1465;-22
2024/03/09 06:47:32;;;;;;;;;;;;;;;;;;2198706;59;1927;-22
2024/03/09 06:50:04;;;;;;;;;;;;;;;;;;2197227;67;2444;-21
2024/03/09 06:52:35;;;;;;;;;;;;;;;;;;2195423;67;2183;-22
2024/03/09 06:55:05;;;;;;;;;;;;;;;;;;2198340;59;1638;-22
2024/03/09 06:57:35;;;;;;;;;;;;;;;;;;2198830;67;1206;-22
2024/03/09 07:00:12;;;;;;;;;;;;;;;;;;2192900;67;1346;-22
2024/03/09 07:02:43;;;;;;;;;;;;;;;;;;2191577;59;1665;-22
2024/03/09 07:05:13;;;;;;;;;;;;;;;;;;2199630;59;1573;-22
2024/03/09 07:07:43;;;;;;;;;;;;;;;;;;2194847;67;1945;-22
2024/03/09 07:10:13;;;;;;;;;;;;;;;;;;2196323;67;1420;-22
2024/03/09 07:12:43;;;;;;;;;;;;;;;;;;2197608;67;1526;-22
2024/03/09 07:15:15;;;;;;;;;;;;;;;;;;2198778;59;1705;-22
2024/03/09 07:17:48;;;;;;;;;;;;;;;;;;2197547;59;1653;-22
2024/03/09 07:20:18;;;;;;;;;;;;;;;;;;2198275;67;1731;-22
2024/03/09 07:22:49;;;;;;;;;;;;;;;;;;2195124;67;1723;-22
2024/03/09 07:25:23;;;;;;;;;;;;;;;;;;2195741;67;1177;-23
2024/03/09 07:27:55;;;;;;;;;;;;;;;;;;2193088;67;1941;-23
2024/03/09 07:30:26;;;;;;;;;;;;;;;;;;2198850;59;1521;-23
2024/03/09 07:32:56;;;;;;;;;;;;;;;;;;2197956;59;1390;-23
2024/03/09 07:35:29;;;;;;;;;;;;;;;;;;2199103;59;1974;-23
2024/03/09 07:37:59;;;;;;;;;;;;;;;;;;2194376;59;1842;-22
2024/03/09 07:40:31;;;;;;;;;;;;;;;;;;2195517;59;1890;-23
2024/03/09 07:43:01;;;;;;;;;;;;;;;;;;2194297;67;1211;-23
2024/03/09 07:45:32;;;;;;;;;;;;;;;;;;2199556;59;1535;-22
2024/03/09 07:48:03;;;;;;;;;;;;;;;;;;2194015;59;1943;-22
2024/03/09 07:50:33;;;;;;;;;;;;;;;;;;2198928;67;1446;-22
2024/03/09 07:53:06;;;;;;;;;;;;;;;;;;2191551;59;2104;-22
2024/03/09 07:55:36;;;;;;;;;;;;;;;;;;2198860;59;2250;-23
2024/03/09 07:58:06;;;;;;;;;;;;;;;;;;2198255;59;1485;-23
2024/03/09 08:00:37;;;;;;;;;;;;;;;;;;2199330;67;2192;-23
2024/03/09 08:03:07;;;;;;;;;;;;;;;;;;2198409;59;1425;-22
2024/03/09 08:05:38;;;;;;;;;;;;;;;;;;2198780;59;2246;-22
2024/03/09 08:08:11;;;;;;;;;;;;;;;;;;2197781;67;1986;-23
2024/03/09 08:10:46;;;;;;;;;;;;;;;;;;2195710;67;2057;-29
2024/03/09 08:13:19;;;;;;;;;;;;;;;;;;2200525;59;1336;-23
2024/03/09 08:15:49;;;;;;;;;;;;;;;;;;2197856;67;1162;-23
2024/03/09 08:18:21;;;;;;;;;;;;;;;;;;2199151;59;2117;-23
2024/03/09 08:20:52;;;;;;;;;;;;;;;;;;2197690;59;1414;-23
2024/03/09 08:23:23;;;;;;;;;;;;;;;;;;2198751;59;2166;-23
2024/03/09 08:25:53;;;;;;;;;;;;;;;;;;2198566;67;1569;-23
2024/03/09 08:28:24;;;;;;;;;;;;;;;;;;2198586;59;2088;-23
2024/03/09 08:30:54;;;;;;;;;;;;;;;;;;2198298;59;1267;-23
2024/03/09 08:33:25;;;;;;;;;;;;;;;;;;2196623;59;2108;-23
2024/03/09 08:35:58;;;;;;;;;;;;;;;;;;2198187;59;2198;-23
2024/03/09 08:38:28;;;;;;;;;;;;;;;;;;2195276;59;2214;-23
2024/03/09 08:40:58;;;;;;;;;;;;;;;;;;2196777;59;2676;-23
2024/03/09 08:43:31;;;;;;;;;;;;;;;;;;2197824;67;2185;-23
2024/03/09 08:46:02;;;;;;;;;;;;;;;;;;2197448;59;2768;-23
2024/03/09 08:48:33;;;;;;;;;;;;;;;;;;2199664;59;1631;-23
2024/03/09 08:51:04;;;;;;;;;;;;;;;;;;2197257;59;2572;-23
2024/03/09 08:53:35;;;;;;;;;;;;;;;;;;2198769;67;1186;-23
2024/03/09 08:56:05;;;;;;;;;;;;;;;;;;2194782;59;2297;-23
2024/03/09 08:58:37;;;;;;;;;;;;;;;;;;2196812;67;1371;-23
2024/03/09 09:01:07;;;;;;;;;;;;;;;;;;2197207;59;2253;-23
2024/03/09 09:03:37;;;;;;;;;;;;;;;;;;2194442;59;1393;-23
2024/03/09 09:06:08;;;;;;;;;;;;;;;;;;2197536;59;2270;-23
2024/03/09 09:08:40;;;;;;;;;;;;;;;;;;2199587;67;1206;-23
2024/03/09 09:11:13;;;;;;;;;;;;;;;;;;2194872;67;1676;-23
2024/03/09 09:13:44;;;;;;;;;;;;;;;;;;2196135;59;2246;-23
2024/03/09 09:16:17;;;;;;;;;;;;;;;;;;2196272;67;19147;-24
2024/03/09 09:18:47;;;;;;;;;;;;;;;;;;2198455;59;2067;-23
2024/03/09 09:21:18;;;;;;;;;;;;;;;;;;2196169;59;2243;-23
2024/03/09 09:23:49;;;;;;;;;;;;;;;;;;2198045;59;2273;-23
2024/03/09 09:26:19;;;;;;;;;;;;;;;;;;2197321;59;2375;-23
2024/03/09 09:28:49;;;;;;;;;;;;;;;;;;2198062;59;2400;-23
2024/03/09 09:31:19;;;;;;;;;;;;;;;;;;2200287;67;1659;-23
2024/03/09 09:33:51;;;;;;;;;;;;;;;;;;2199278;59;2442;-24
2024/03/09 09:36:21;;;;;;;;;;;;;;;;;;2198312;59;2392;-23
2024/03/09 09:38:51;;;;;;;;;;;;;;;;;;2196012;59;2461;-23
2024/03/09 09:41:24;;;;;;;;;;;;;;;;;;2194539;59;2489;-24
2024/03/09 09:43:56;;;;;;;;;;;;;;;;;;2191639;59;2302;-24
2024/03/09 09:46:27;;;;;;;;;;;;;;;;;;2196308;59;2333;-24
2024/03/09 09:48:57;;;;;;;;;;;;;;;;;;2196608;59;1557;-24
2024/03/09 09:51:28;;;;;;;;;;;;;;;;;;2198796;59;2166;-24
2024/03/09 09:54:02;;;;;;;;;;;;;;;;;;2194357;59;1984;-24
2024/03/09 09:56:32;;;;;;;;;;;;;;;;;;2192387;59;1908;-24
2024/03/09 09:59:02;;;;;;;;;;;;;;;;;;2198191;59;2243;-23
2024/03/09 10:01:32;;;;;;;;;;;;;;;;;;2198589;59;2073;-24
2024/03/09 10:04:04;;;;;;;;;;;;;;;;;;2196786;59;2138;-24
2024/03/09 10:06:34;;;;;;;;;;;;;;;;;;2198769;67;2000;-24
2024/03/09 10:09:04;;;;;;;;;;;;;;;;;;2192174;59;2198;-24
2024/03/09 10:11:34;;;;;;;;;;;;;;;;;;2195803;67;1300;-24
2024/03/09 10:14:07;;;;;;;;;;;;;;;;;;2197515;59;2574;-24
2024/03/09 10:16:39;;;;;;;;;;;;;;;;;;2198614;59;2343;-24
2024/03/09 10:19:10;;;;;;;;;;;;;;;;;;2196844;59;1418;-24
2024/03/09 10:21:40;;;;;;;;;;;;;;;;;;2197869;60;1057;-24
2024/03/09 10:24:11;;;;;;;;;;;;;;;;;;2197682;67;1222;-24
2024/03/09 10:26:44;;;;;;;;;;;;;;;;;;2196799;59;2129;-24
2024/03/09 10:29:15;;;;;;;;;;;;;;;;;;2195084;67;1394;-24
2024/03/09 10:31:46;;;;;;;;;;;;;;;;;;2200205;67;1234;-24
2024/03/09 10:34:16;;;;;;;;;;;;;;;;;;2195001;59;1596;-24
2024/03/09 10:36:47;;;;;;;;;;;;;;;;;;2198972;60;1450;-24
2024/03/09 10:39:19;;;;;;;;;;;;;;;;;;2193319;59;1638;-24
2024/03/09 10:41:51;;;;;;;;;;;;;;;;;;2198583;67;1523;-24
2024/03/09 10:44:23;;;;;;;;;;;;;;;;;;2196699;59;2600;-24
2024/03/09 10:46:57;;;;;;;;;;;;;;;;;;2191187;59;2641;-24
2024/03/09 10:49:30;;;;;;;;;;;;;;;;;;2197959;59;2504;-24
2024/03/09 10:52:07;;;;;;;;;;;;;;;;;;2195953;59;2329;-24
2024/03/09 10:54:59;;;;;;;;;;;;;;;;;;2198084;59;1924;-24
2024/03/09 10:57:29;;;;;;;;;;;;;;;;;;2198358;67;1837;-24
2024/03/09 11:00:00;;;;;;;;;;;;;;;;;;2191809;67;2277;-24
2024/03/09 11:02:31;;;;;;;;;;;;;;;;;;2198176;59;2266;-24
2024/03/09 11:05:05;;;;;;;;;;;;;;;;;;2198031;59;1953;-24
2024/03/09 11:07:35;;;;;;;;;;;;;;;;;;2194511;59;2102;-24
2024/03/09 11:10:07;;;;;;;;;;;;;;;;;;2197237;59;1694;-24
2024/03/09 11:12:37;;;;;;;;;;;;;;;;;;2196338;59;2340;-23
2024/03/09 11:15:08;;;;;;;;;;;;;;;;;;2197670;59;2461;-23
2024/03/09 11:17:43;;;;;;;;;;;;;;;;;;2198789;59;3312;-23
2024/03/09 11:20:13;;;;;;;;;;;;;;;;;;2197674;59;2100;-23
2024/03/09 11:22:47;;;;;;;;;;;;;;;;;;2191828;59;2270;-24
2024/03/09 11:25:34;;;;;;;;;;;;;;;;;;2198245;59;1265;-23
2024/03/09 11:28:06;;;;;;;;;;;;;;;;;;2194821;59;2015;-23
2024/03/09 11:30:36;;;;;;;;;;;;;;;;;;2199716;59;2477;-23
2024/03/09 11:33:10;;;;;;;;;;;;;;;;;;2198623;59;2325;-24
2024/03/09 11:35:41;;;;;;;;;;;;;;;;;;2197327;59;2189;-23
2024/03/09 11:38:18;;;;;;;;;;;;;;;;;;2198309;59;1373;-23
2024/03/09 11:40:48;;;;;;;;;;;;;;;;;;2196970;59;2049;-23
2024/03/09 11:43:19;;;;;;;;;;;;;;;;;;2198953;59;1273;-23
2024/03/09 11:45:49;;;;;;;;;;;;;;;;;;2198792;59;2209;-24
2024/03/09 11:48:21;;;;;;;;;;;;;;;;;;2198495;59;2119;-23
2024/03/09 11:50:53;;;;;;;;;;;;;;;;;;2199580;59;3103;-23
2024/03/09 11:53:23;;;;;;;;;;;;;;;;;;2199410;67;1523;-23
2024/03/09 11:55:55;;;;;;;;;;;;;;;;;;2200234;59;1642;-23
2024/03/09 11:58:26;;;;;;;;;;;;;;;;;;2200629;67;1657;-23
2024/03/09 12:00:57;;;;;;;;;;;;;;;;;;2196073;67;1157;-23
2024/03/09 12:03:27;;;;;;;;;;;;;;;;;;2201577;59;1355;-23
2024/03/09 12:05:58;;;;;;;;;;;;;;;;;;2199813;67;1216;-24
2024/03/09 12:08:30;;;;;;;;;;;;;;;;;;2195569;59;1950;-24
2024/03/09 12:11:00;;;;;;;;;;;;;;;;;;2198008;59;1540;-24
2024/03/09 12:13:30;;;;;;;;;;;;;;;;;;2197230;59;2502;-24
2024/03/09 12:16:01;;;;;;;;;;;;;;;;;;2194752;59;2377;-24
2024/03/09 12:18:32;;;;;;;;;;;;;;;;;;2198151;59;2360;-24
2024/03/09 12:21:02;;;;;;;;;;;;;;;;;;2194538;67;2394;-24
2024/03/09 12:23:34;;;;;;;;;;;;;;;;;;2198972;59;2178;-24
2024/03/09 12:26:04;;;;;;;;;;;;;;;;;;2194660;67;1462;-24
2024/03/09 12:28:35;;;;;;;;;;;;;;;;;;2197731;59;1949;-24
2024/03/09 12:31:05;;;;;;;;;;;;;;;;;;2197495;67;2646;-24
2024/03/09 12:33:37;;;;;;;;;;;;;;;;;;2197075;59;2843;-24
2024/03/09 12:36:08;;;;;;;;;;;;;;;;;;2198010;59;2457;-24
2024/03/09 12:38:38;;;;;;;;;;;;;;;;;;2195700;59;1737;-24
2024/03/09 12:41:25;;;;;;;;;;;;;;;;;;2197359;59;2236;-24
2024/03/09 12:44:03;;;;;;;;;;;;;;;;;;2198885;67;1341;-24
2024/03/09 12:46:34;;;;;;;;;;;;;;;;;;2198063;59;2172;-24
2024/03/09 12:49:08;;;;;;;;;;;;;;;;;;2192325;67;1691;-24
2024/03/09 12:51:42;;;;;;;;;;;;;;;;;;2198870;59;2282;-24
2024/03/09 12:54:13;;;;;;;;;;;;;;;;;;2197453;67;1904;-24
2024/03/09 12:56:50;;;;;;;;;;;;;;;;;;2198949;67;2490;-24
2024/03/09 12:59:20;;;;;;;;;;;;;;;;;;2198104;67;1686;-24
2024/03/09 13:01:51;;;;;;;;;;;;;;;;;;2198830;59;1222;-24
2024/03/09 13:04:25;;;;;;;;;;;;;;;;;;2197821;59;2564;-24
2024/03/09 13:06:55;;;;;;;;;;;;;;;;;;2200310;67;1952;-24
2024/03/09 13:09:30;;;;;;;;;;;;;;;;;;2198238;59;2600;-24
2024/03/09 13:12:02;;;;;;;;;;;;;;;;;;2198978;67;1423;-24
2024/03/09 13:14:35;;;;;;;;;;;;;;;;;;2194785;59;1850;-24
2024/03/09 13:17:06;;;;;;;;;;;;;;;;;;2198487;67;1856;-24
2024/03/09 13:19:36;;;;;;;;;;;;;;;;;;2199411;59;2140;-24
2024/03/09 13:22:08;;;;;;;;;;;;;;;;;;2194973;59;2177;-24
2024/03/09 13:24:39;;;;;;;;;;;;;;;;;;2196629;67;1468;-24
2024/03/09 13:27:12;;;;;;;;;;;;;;;;;;2198002;67;1947;-24
2024/03/09 13:29:42;;;;;;;;;;;;;;;;;;2198533;59;1789;-24
2024/03/09 13:32:15;;;;;;;;;;;;;;;;;;2197940;59;1670;-24
2024/03/09 13:34:46;;;;;;;;;;;;;;;;;;2199471;59;2005;-24
2024/03/09 13:37:17;;;;;;;;;;;;;;;;;;2195765;67;1867;-24
2024/03/09 13:39:49;;;;;;;;;;;;;;;;;;2199793;59;3067;-24
2024/03/09 13:42:19;;;;;;;;;;;;;;;;;;2194965;67;1561;-24
2024/03/09 13:44:49;;;;;;;;;;;;;;;;;;2199942;59;1151;-24
2024/03/09 13:47:19;;;;;;;;;;;;;;;;;;2198496;54;2375;-18
2024/03/09 13:49:50;;;;;;;;;;;;;;;;;;2190297;59;1800;-18
2024/03/09 13:52:21;;;;;;;;;;;;;;;;;;2193102;59;1900;-19
2024/03/09 13:54:55;;;;;;;;;;;;;;;;;;2192836;59;2260;-18
2024/03/09 13:57:25;;;;;;;;;;;;;;;;;;2193604;67;2330;-18
2024/03/09 13:59:55;;;;;;;;;;;;;;;;;;2190997;67;1928;-18
2024/03/09 14:02:27;;;;;;;;;;;;;;;;;;2192298;59;1764;-18
2024/03/09 14:04:58;;;;;;;;;;;;;;;;;;2191852;59;1756;-18
2024/03/09 14:07:28;;;;;;;;;;;;;;;;;;2193289;67;2583;-18
2024/03/09 14:09:59;;;;;;;;;;;;;;;;;;2194559;67;2114;-18
2024/03/09 14:12:32;;;;;;;;;;;;;;;;;;2190423;67;2638;-18
2024/03/09 14:15:03;;;;;;;;;;;;;;;;;;2194146;59;2450;-19
2024/03/09 14:17:33;;;;;;;;;;;;;;;;;;2193244;67;2363;-18
2024/03/09 14:20:16;;;;;;;;;;;;;;;;;;2194383;59;1755;-18
2024/03/09 14:22:46;;;;;;;;;;;;;;;;;;2193688;67;2491;-18
2024/03/09 14:25:29;;;;;;;;;;;;;;;;;;2187618;67;2320;-18
2024/03/09 14:28:03;;;;;;;;;;;;;;;;;;2191409;67;1938;-18
2024/03/09 14:30:34;;;;;;;;;;;;;;;;;;2187872;67;1847;-18
2024/03/09 14:33:04;;;;;;;;;;;;;;;;;;2193948;59;2353;-18
2024/03/09 14:35:35;;;;;;;;;;;;;;;;;;2193491;59;2119;-18
2024/03/09 14:38:07;;;;;;;;;;;;;;;;;;2192421;59;1802;-18
2024/03/09 14:40:38;;;;;;;;;;;;;;;;;;2190397;59;1778;-18
2024/03/09 14:43:12;;;;;;;;;;;;;;;;;;2190917;67;2190;-18
2024/03/09 14:45:43;;;;;;;;;;;;;;;;;;2194141;59;1954;-18
2024/03/09 14:48:15;;;;;;;;;;;;;;;;;;2193317;59;1936;-18
2024/03/09 14:50:46;;;;;;;;;;;;;;;;;;2194244;67;1840;-18
2024/03/09 14:53:17;;;;;;;;;;;;;;;;;;2193733;67;1907;-18
2024/03/09 14:55:49;;;;;;;;;;;;;;;;;;2192209;59;2036;-18
2024/03/09 14:58:19;;;;;;;;;;;;;;;;;;2193111;67;2331;-18
2024/03/09 15:00:54;;;;;;;;;;;;;;;;;;2193558;59;1789;-18
2024/03/09 15:05:55;;;;;;;;;;;;;;;;;;2193457;67;1580;-18
2024/03/09 15:08:26;;;;;;;;;;;;;;;;;;2192400;67;1973;-18
2024/03/09 15:10:59;;;;;;;;;;;;;;;;;;2193007;67;1869;-18
2024/03/09 15:13:40;;;;;;;;;;;;;;;;;;2190451;59;2780;-18
2024/03/09 15:16:11;;;;;;;;;;;;;;;;;;2193349;59;3096;-18
2024/03/09 15:18:41;;;;;;;;;;;;;;;;;;2192603;67;2273;-18
2024/03/09 15:21:11;;;;;;;;;;;;;;;;;;2191281;59;2630;-18
2024/03/09 15:23:42;;;;;;;;;;;;;;;;;;2189677;59;2259;-18
2024/03/09 15:26:13;;;;;;;;;;;;;;;;;;2191350;59;1797;-18
2024/03/09 15:28:44;;;;;;;;;;;;;;;;;;2190928;59;2166;-18
2024/03/09 15:31:15;;;;;;;;;;;;;;;;;;2193634;67;2500;-18
2024/03/09 15:33:45;;;;;;;;;;;;;;;;;;2192493;59;2193;-18
2024/03/09 15:36:15;;;;;;;;;;;;;;;;;;2191612;67;1764;-18
2024/03/09 15:38:46;;;;;;;;;;;;;;;;;;2190395;59;2953;-18
2024/03/09 15:41:17;;;;;;;;;;;;;;;;;;2194123;59;1594;-18
2024/03/09 15:43:50;;;;;;;;;;;;;;;;;;2194239;59;2226;-18
2024/03/09 15:46:20;;;;;;;;;;;;;;;;;;2189770;59;1912;-18
2024/03/09 15:48:52;;;;;;;;;;;;;;;;;;2193542;59;2076;-18
2024/03/09 15:51:23;;;;;;;;;;;;;;;;;;2192449;67;1364;-18
2024/03/09 15:53:53;;;;;;;;;;;;;;;;;;2188626;59;2038;-18
2024/03/09 15:56:24;;;;;;;;;;;;;;;;;;2193330;59;1365;-18
2024/03/09 15:58:56;;;;;;;;;;;;;;;;;;2193893;59;1246;-18
2024/03/09 16:01:27;;;;;;;;;;;;;;;;;;2192032;59;2212;-18
2024/03/09 16:03:57;;;;;;;;;;;;;;;;;;2195310;59;1616;-18
2024/03/09 16:06:27;;;;;;;;;;;;;;;;;;2193327;59;2093;-18
2024/03/09 16:08:58;;;;;;;;;;;;;;;;;;2194312;67;1190;-18
2024/03/09 16:11:28;;;;;;;;;;;;;;;;;;2190789;59;1997;-18
2024/03/09 16:14:00;;;;;;;;;;;;;;;;;;2193858;59;1777;-18
2024/03/09 16:16:31;;;;;;;;;;;;;;;;;;2194418;59;2127;-18
2024/03/09 16:19:01;;;;;;;;;;;;;;;;;;2195366;67;1343;-18
2024/03/09 16:21:37;;;;;;;;;;;;;;;;;;2193322;60;2251;-18
2024/03/09 16:24:07;;;;;;;;;;;;;;;;;;2195604;67;1136;-18
2024/03/09 16:26:39;;;;;;;;;;;;;;;;;;2192482;59;2276;-18
2024/03/09 16:29:09;;;;;;;;;;;;;;;;;;2193035;67;1490;-18
2024/03/09 16:31:40;;;;;;;;;;;;;;;;;;2194768;67;1472;-18
2024/03/09 16:34:11;;;;;;;;;;;;;;;;;;2191955;59;1685;-18
2024/03/09 16:36:41;;;;;;;;;;;;;;;;;;2192553;67;1227;-18
2024/03/09 16:39:11;;;;;;;;;;;;;;;;;;2194858;59;1787;-18
2024/03/09 16:41:43;;;;;;;;;;;;;;;;;;2189170;59;1536;-18
2024/03/09 16:44:14;;;;;;;;;;;;;;;;;;2192582;59;1903;-18
2024/03/09 16:46:45;;;;;;;;;;;;;;;;;;2191879;59;1927;-18
2024/03/09 16:49:30;;;;;;;;;;;;;;;;;;2193857;67;1378;-18
2024/03/09 16:52:01;;;;;;;;;;;;;;;;;;2194382;67;1262;-18
2024/03/09 16:54:32;;;;;;;;;;;;;;;;;;2190839;59;2422;-18
2024/03/09 16:57:07;;;;;;;;;;;;;;;;;;2194524;67;1796;-18
2024/03/09 16:59:37;;;;;;;;;;;;;;;;;;2194310;59;2216;-18
2024/03/09 17:02:08;;;;;;;;;;;;;;;;;;2194525;67;1173;-18
2024/03/09 17:04:39;;;;;;;;;;;;;;;;;;2194287;59;1642;-18
2024/03/09 17:07:12;;;;;;;;;;;;;;;;;;2194840;67;1942;-18
2024/03/09 17:09:43;;;;;;;;;;;;;;;;;;2195027;67;1583;-18
2024/03/09 17:12:13;;;;;;;;;;;;;;;;;;2195226;67;1116;-17
2024/03/09 17:14:43;;;;;;;;;;;;;;;;;;2191680;59;1740;-18
2024/03/09 17:17:14;;;;;;;;;;;;;;;;;;2195169;67;1896;-17
2024/03/09 17:19:44;;;;;;;;;;;;;;;;;;2193978;67;1264;-18
2024/03/09 17:22:19;;;;;;;;;;;;;;;;;;2194725;67;1364;-20
2024/03/09 17:24:49;;;;;;;;;;;;;;;;;;2194029;67;1652;-20
2024/03/09 17:27:19;;;;;;;;;;;;;;;;;;2195013;67;1908;-20
2024/03/09 17:29:51;;;;;;;;;;;;;;;;;;2194391;67;1243;-20
2024/03/09 17:32:25;;;;;;;;;;;;;;;;;;2194802;59;1199;-20
2024/03/09 17:34:55;;;;;;;;;;;;;;;;;;2194300;59;1559;-20
2024/03/09 17:37:27;;;;;;;;;;;;;;;;;;2194115;59;1355;-21